sensor_id;sensor_type;location;lat;lon;timestamp;temperature;humidity
35325;DHT22;35135;47.510;19.036;2023-05-10T00:00:33;22.30;45.30
35325;DHT22;35135;47.510;19.036;2023-05-10T00:02:58;22.30;45.30
35325;DHT22;35135;47.510;19.036;2023-05-10T00:05:24;22.30;45.10
35325;DHT22;35135;47.510;19.036;2023-05-10T00:07:50;22.30;45.30
35325;DHT22;35135;47.510;19.036;2023-05-10T00:10:15;22.30;45.00
35325;DHT22;35135;47.510;19.036;2023-05-10T00:12:41;22.30;45.10
35325;DHT22;35135;47.510;19.036;2023-05-10T00:15:08;22.30;45.10
35325;DHT22;35135;47.510;19.036;2023-05-10T00:17:33;22.30;45.30
35325;DHT22;35135;47.510;19.036;2023-05-10T00:20:00;22.30;45.20
35325;DHT22;35135;47.510;19.036;2023-05-10T00:22:26;22.30;45.30
35325;DHT22;35135;47.510;19.036;2023-05-10T00:24:51;22.30;45.20
35325;DHT22;35135;47.510;19.036;2023-05-10T00:27:17;22.30;45.20
35325;DHT22;35135;47.510;19.036;2023-05-10T00:29:43;22.30;45.20
35325;DHT22;35135;47.510;19.036;2023-05-10T00:32:08;22.30;45.20
35325;DHT22;35135;47.510;19.036;2023-05-10T00:34:34;22.30;44.80
35325;DHT22;35135;47.510;19.036;2023-05-10T00:36:59;22.40;45.20
35325;DHT22;35135;47.510;19.036;2023-05-10T00:39:25;22.40;45.30
35325;DHT22;35135;47.510;19.036;2023-05-10T00:41:52;22.30;45.20
35325;DHT22;35135;47.510;19.036;2023-05-10T00:44:17;22.40;45.30
35325;DHT22;35135;47.510;19.036;2023-05-10T00:46:44;22.40;45.30
35325;DHT22;35135;47.510;19.036;2023-05-10T00:49:11;22.40;45.00
35325;DHT22;35135;47.510;19.036;2023-05-10T00:51:37;22.40;45.30
35325;DHT22;35135;47.510;19.036;2023-05-10T00:54:03;22.40;45.30
35325;DHT22;35135;47.510;19.036;2023-05-10T00:56:28;22.30;45.10
35325;DHT22;35135;47.510;19.036;2023-05-10T00:58:55;22.40;45.10
35325;DHT22;35135;47.510;19.036;2023-05-10T01:01:21;22.40;45.20
35325;DHT22;35135;47.510;19.036;2023-05-10T01:03:47;22.40;45.30
35325;DHT22;35135;47.510;19.036;2023-05-10T01:06:13;22.40;45.00
35325;DHT22;35135;47.510;19.036;2023-05-10T01:08:39;22.40;45.60
35325;DHT22;35135;47.510;19.036;2023-05-10T01:11:05;22.40;45.10
35325;DHT22;35135;47.510;19.036;2023-05-10T01:13:33;22.40;45.00
35325;DHT22;35135;47.510;19.036;2023-05-10T01:16:00;22.40;44.90
35325;DHT22;35135;47.510;19.036;2023-05-10T01:18:29;22.40;44.90
35325;DHT22;35135;47.510;19.036;2023-05-10T01:27:17;22.40;45.00
35325;DHT22;35135;47.510;19.036;2023-05-10T01:29:54;22.40;44.90
35325;DHT22;35135;47.510;19.036;2023-05-10T01:35:40;22.40;44.90
35325;DHT22;35135;47.510;19.036;2023-05-10T01:43:56;22.40;44.90
35325;DHT22;35135;47.510;19.036;2023-05-10T01:46:35;22.40;45.10
35325;DHT22;35135;47.510;19.036;2023-05-10T01:49:10;22.40;45.00
35325;DHT22;35135;47.510;19.036;2023-05-10T01:51:45;22.40;45.10
35325;DHT22;35135;47.510;19.036;2023-05-10T01:54:13;22.40;45.00
35325;DHT22;35135;47.510;19.036;2023-05-10T01:56:44;22.40;44.90
35325;DHT22;35135;47.510;19.036;2023-05-10T01:59:17;22.40;45.00
35325;DHT22;35135;47.510;19.036;2023-05-10T02:01:45;22.40;44.90
35325;DHT22;35135;47.510;19.036;2023-05-10T02:04:15;22.40;44.80
35325;DHT22;35135;47.510;19.036;2023-05-10T02:06:42;22.40;45.10
35325;DHT22;35135;47.510;19.036;2023-05-10T02:09:10;22.40;44.90
35325;DHT22;35135;47.510;19.036;2023-05-10T02:11:38;22.40;44.90
35325;DHT22;35135;47.510;19.036;2023-05-10T02:14:07;22.40;45.00
35325;DHT22;35135;47.510;19.036;2023-05-10T02:16:35;22.40;45.10
35325;DHT22;35135;47.510;19.036;2023-05-10T02:19:02;22.40;45.10
35325;DHT22;35135;47.510;19.036;2023-05-10T02:21:28;22.40;44.90
35325;DHT22;35135;47.510;19.036;2023-05-10T02:23:55;22.40;45.00
35325;DHT22;35135;47.510;19.036;2023-05-10T02:26:23;22.40;44.90
35325;DHT22;35135;47.510;19.036;2023-05-10T02:28:50;22.40;45.10
35325;DHT22;35135;47.510;19.036;2023-05-10T02:31:17;22.40;45.00
35325;DHT22;35135;47.510;19.036;2023-05-10T02:33:44;22.40;45.00
35325;DHT22;35135;47.510;19.036;2023-05-10T02:36:11;22.40;45.10
35325;DHT22;35135;47.510;19.036;2023-05-10T02:38:37;22.40;45.10
35325;DHT22;35135;47.510;19.036;2023-05-10T02:41:05;22.40;45.10
35325;DHT22;35135;47.510;19.036;2023-05-10T02:43:33;22.40;45.20
35325;DHT22;35135;47.510;19.036;2023-05-10T02:45:59;22.40;45.20
35325;DHT22;35135;47.510;19.036;2023-05-10T02:48:25;22.40;45.10
35325;DHT22;35135;47.510;19.036;2023-05-10T02:50:52;22.40;45.60
35325;DHT22;35135;47.510;19.036;2023-05-10T02:53:23;22.40;45.70
35325;DHT22;35135;47.510;19.036;2023-05-10T02:55:52;22.40;45.30
35325;DHT22;35135;47.510;19.036;2023-05-10T02:58:19;22.40;45.10
35325;DHT22;35135;47.510;19.036;2023-05-10T03:00:46;22.40;45.20
35325;DHT22;35135;47.510;19.036;2023-05-10T03:03:12;22.40;45.10
35325;DHT22;35135;47.510;19.036;2023-05-10T03:05:37;22.50;45.10
35325;DHT22;35135;47.510;19.036;2023-05-10T03:08:03;22.40;45.00
35325;DHT22;35135;47.510;19.036;2023-05-10T03:10:31;22.40;45.70
35325;DHT22;35135;47.510;19.036;2023-05-10T03:13:32;22.40;44.90
35325;DHT22;35135;47.510;19.036;2023-05-10T03:16:16;22.40;45.10
35325;DHT22;35135;47.510;19.036;2023-05-10T03:21:56;22.40;44.90
35325;DHT22;35135;47.510;19.036;2023-05-10T03:24:27;22.40;45.00
35325;DHT22;35135;47.510;19.036;2023-05-10T03:26:55;22.50;45.00
35325;DHT22;35135;47.510;19.036;2023-05-10T03:29:23;22.50;44.90
35325;DHT22;35135;47.510;19.036;2023-05-10T03:31:51;22.50;45.10
35325;DHT22;35135;47.510;19.036;2023-05-10T03:34:16;22.40;44.80
35325;DHT22;35135;47.510;19.036;2023-05-10T03:36:42;22.40;44.90
35325;DHT22;35135;47.510;19.036;2023-05-10T03:39:08;22.50;44.80
35325;DHT22;35135;47.510;19.036;2023-05-10T03:41:34;22.50;44.70
35325;DHT22;35135;47.510;19.036;2023-05-10T03:44:00;22.50;44.80
35325;DHT22;35135;47.510;19.036;2023-05-10T03:46:25;22.50;44.80
35325;DHT22;35135;47.510;19.036;2023-05-10T03:48:51;22.50;45.00
35325;DHT22;35135;47.510;19.036;2023-05-10T03:51:17;22.40;44.80
35325;DHT22;35135;47.510;19.036;2023-05-10T03:53:42;22.50;44.90
35325;DHT22;35135;47.510;19.036;2023-05-10T03:56:08;22.50;44.90
35325;DHT22;35135;47.510;19.036;2023-05-10T03:58:34;22.50;44.90
35325;DHT22;35135;47.510;19.036;2023-05-10T04:00:59;22.50;45.10
35325;DHT22;35135;47.510;19.036;2023-05-10T04:03:25;22.50;44.90
35325;DHT22;35135;47.510;19.036;2023-05-10T04:05:59;22.40;45.00
35325;DHT22;35135;47.510;19.036;2023-05-10T04:08:25;22.50;45.10
35325;DHT22;35135;47.510;19.036;2023-05-10T04:10:51;22.50;45.00
35325;DHT22;35135;47.510;19.036;2023-05-10T04:13:17;22.50;44.90
35325;DHT22;35135;47.510;19.036;2023-05-10T04:15:42;22.50;44.80
35325;DHT22;35135;47.510;19.036;2023-05-10T04:18:09;22.40;44.90
35325;DHT22;35135;47.510;19.036;2023-05-10T04:20:35;22.50;44.90
35325;DHT22;35135;47.510;19.036;2023-05-10T04:23:01;22.50;45.00
35325;DHT22;35135;47.510;19.036;2023-05-10T04:25:26;22.50;44.90
35325;DHT22;35135;47.510;19.036;2023-05-10T04:27:52;22.60;44.70
35325;DHT22;35135;47.510;19.036;2023-05-10T04:30:18;22.60;44.70
35325;DHT22;35135;47.510;19.036;2023-05-10T04:32:43;22.50;44.70
35325;DHT22;35135;47.510;19.036;2023-05-10T04:35:09;22.60;44.70
35325;DHT22;35135;47.510;19.036;2023-05-10T04:37:36;22.70;44.80
35325;DHT22;35135;47.510;19.036;2023-05-10T04:40:02;22.70;44.50
35325;DHT22;35135;47.510;19.036;2023-05-10T04:42:28;22.80;44.50
35325;DHT22;35135;47.510;19.036;2023-05-10T04:44:54;22.80;44.30
35325;DHT22;35135;47.510;19.036;2023-05-10T04:47:20;22.90;44.20
35325;DHT22;35135;47.510;19.036;2023-05-10T04:49:45;23.00;44.10
35325;DHT22;35135;47.510;19.036;2023-05-10T04:52:11;23.10;44.00
35325;DHT22;35135;47.510;19.036;2023-05-10T04:54:37;23.10;43.90
35325;DHT22;35135;47.510;19.036;2023-05-10T04:57:04;23.20;43.70
35325;DHT22;35135;47.510;19.036;2023-05-10T04:59:29;23.30;43.60
35325;DHT22;35135;47.510;19.036;2023-05-10T05:01:55;23.30;43.50
35325;DHT22;35135;47.510;19.036;2023-05-10T05:04:20;23.40;43.50
35325;DHT22;35135;47.510;19.036;2023-05-10T05:06:48;23.40;43.30
35325;DHT22;35135;47.510;19.036;2023-05-10T05:09:14;23.50;43.30
35325;DHT22;35135;47.510;19.036;2023-05-10T05:11:40;23.60;43.10
35325;DHT22;35135;47.510;19.036;2023-05-10T05:14:06;23.60;43.10
35325;DHT22;35135;47.510;19.036;2023-05-10T05:16:31;23.60;42.90
35325;DHT22;35135;47.510;19.036;2023-05-10T05:18:57;23.70;42.90
35325;DHT22;35135;47.510;19.036;2023-05-10T05:21:23;23.70;42.80
35325;DHT22;35135;47.510;19.036;2023-05-10T05:23:50;23.80;42.70
35325;DHT22;35135;47.510;19.036;2023-05-10T05:26:16;23.80;42.70
35325;DHT22;35135;47.510;19.036;2023-05-10T05:28:42;23.70;42.60
35325;DHT22;35135;47.510;19.036;2023-05-10T05:31:07;23.60;42.70
35325;DHT22;35135;47.510;19.036;2023-05-10T05:33:33;23.60;42.80
35325;DHT22;35135;47.510;19.036;2023-05-10T05:36:03;23.50;42.90
35325;DHT22;35135;47.510;19.036;2023-05-10T05:38:29;23.50;43.10
35325;DHT22;35135;47.510;19.036;2023-05-10T05:40:55;23.50;43.10
35325;DHT22;35135;47.510;19.036;2023-05-10T05:43:21;23.50;43.20
35325;DHT22;35135;47.510;19.036;2023-05-10T05:45:47;23.50;43.20
35325;DHT22;35135;47.510;19.036;2023-05-10T05:48:12;23.50;43.10
35325;DHT22;35135;47.510;19.036;2023-05-10T05:50:38;23.60;43.20
35325;DHT22;35135;47.510;19.036;2023-05-10T05:53:04;23.60;43.00
35325;DHT22;35135;47.510;19.036;2023-05-10T05:55:29;23.70;43.10
35325;DHT22;35135;47.510;19.036;2023-05-10T05:57:57;23.70;42.80
35325;DHT22;35135;47.510;19.036;2023-05-10T06:00:23;23.80;42.70
35325;DHT22;35135;47.510;19.036;2023-05-10T06:02:48;23.80;41.30
35325;DHT22;35135;47.510;19.036;2023-05-10T06:05:14;23.80;42.10
35325;DHT22;35135;47.510;19.036;2023-05-10T06:07:40;23.80;41.50
35325;DHT22;35135;47.510;19.036;2023-05-10T06:10:09;23.80;41.00
35325;DHT22;35135;47.510;19.036;2023-05-10T06:12:35;23.70;40.40
35325;DHT22;35135;47.510;19.036;2023-05-10T06:15:02;23.70;40.60
35325;DHT22;35135;47.510;19.036;2023-05-10T06:17:27;23.70;40.50
35325;DHT22;35135;47.510;19.036;2023-05-10T06:19:54;23.60;40.00
35325;DHT22;35135;47.510;19.036;2023-05-10T06:22:19;23.60;40.20
35325;DHT22;35135;47.510;19.036;2023-05-10T06:24:47;23.60;39.90
35325;DHT22;35135;47.510;19.036;2023-05-10T06:27:12;23.60;40.40
35325;DHT22;35135;47.510;19.036;2023-05-10T06:29:38;23.60;40.40
35325;DHT22;35135;47.510;19.036;2023-05-10T06:32:04;23.50;40.30
35325;DHT22;35135;47.510;19.036;2023-05-10T06:34:30;23.50;40.10
35325;DHT22;35135;47.510;19.036;2023-05-10T06:36:56;23.50;40.20
35325;DHT22;35135;47.510;19.036;2023-05-10T06:39:21;23.40;40.10
35325;DHT22;35135;47.510;19.036;2023-05-10T06:41:47;23.40;40.20
35325;DHT22;35135;47.510;19.036;2023-05-10T06:44:13;23.40;40.00
35325;DHT22;35135;47.510;19.036;2023-05-10T06:46:39;23.40;40.00
35325;DHT22;35135;47.510;19.036;2023-05-10T06:49:05;23.30;40.00
35325;DHT22;35135;47.510;19.036;2023-05-10T06:51:30;23.20;40.30
35325;DHT22;35135;47.510;19.036;2023-05-10T06:53:56;23.10;40.20
35325;DHT22;35135;47.510;19.036;2023-05-10T06:56:22;23.10;40.20
35325;DHT22;35135;47.510;19.036;2023-05-10T06:58:48;23.20;40.30
35325;DHT22;35135;47.510;19.036;2023-05-10T07:01:14;23.20;40.40
35325;DHT22;35135;47.510;19.036;2023-05-10T07:03:40;23.00;40.40
35325;DHT22;35135;47.510;19.036;2023-05-10T07:06:06;22.90;40.70
35325;DHT22;35135;47.510;19.036;2023-05-10T07:08:33;22.60;41.10
35325;DHT22;35135;47.510;19.036;2023-05-10T07:11:04;22.40;42.00
35325;DHT22;35135;47.510;19.036;2023-05-10T07:13:33;22.40;42.20
35325;DHT22;35135;47.510;19.036;2023-05-10T07:16:00;22.40;42.50
35325;DHT22;35135;47.510;19.036;2023-05-10T07:18:26;22.50;42.50
35325;DHT22;35135;47.510;19.036;2023-05-10T07:20:51;22.50;42.10
35325;DHT22;35135;47.510;19.036;2023-05-10T07:23:17;22.50;42.30
35325;DHT22;35135;47.510;19.036;2023-05-10T07:25:48;22.40;42.70
35325;DHT22;35135;47.510;19.036;2023-05-10T07:28:15;22.50;42.20
35325;DHT22;35135;47.510;19.036;2023-05-10T07:30:40;22.50;42.70
35325;DHT22;35135;47.510;19.036;2023-05-10T07:33:07;22.60;42.80
35325;DHT22;35135;47.510;19.036;2023-05-10T07:35:33;22.60;42.80
35325;DHT22;35135;47.510;19.036;2023-05-10T07:37:59;22.70;42.60
35325;DHT22;35135;47.510;19.036;2023-05-10T07:40:25;22.60;42.10
35325;DHT22;35135;47.510;19.036;2023-05-10T07:42:51;22.40;42.30
35325;DHT22;35135;47.510;19.036;2023-05-10T07:45:18;22.30;42.40
35325;DHT22;35135;47.510;19.036;2023-05-10T07:47:43;22.20;42.90
35325;DHT22;35135;47.510;19.036;2023-05-10T07:50:09;22.30;43.00
35325;DHT22;35135;47.510;19.036;2023-05-10T07:52:35;22.30;42.60
35325;DHT22;35135;47.510;19.036;2023-05-10T07:55:00;22.10;42.50
35325;DHT22;35135;47.510;19.036;2023-05-10T07:57:26;22.10;43.50
35325;DHT22;35135;47.510;19.036;2023-05-10T07:59:52;22.10;42.80
35325;DHT22;35135;47.510;19.036;2023-05-10T08:02:17;22.20;43.20
35325;DHT22;35135;47.510;19.036;2023-05-10T08:04:43;22.30;43.30
35325;DHT22;35135;47.510;19.036;2023-05-10T08:07:10;22.30;43.10
35325;DHT22;35135;47.510;19.036;2023-05-10T08:09:36;22.40;42.70
35325;DHT22;35135;47.510;19.036;2023-05-10T08:12:01;22.50;42.40
35325;DHT22;35135;47.510;19.036;2023-05-10T08:14:28;22.40;42.60
35325;DHT22;35135;47.510;19.036;2023-05-10T08:16:55;22.30;42.80
35325;DHT22;35135;47.510;19.036;2023-05-10T08:19:21;22.30;42.90
35325;DHT22;35135;47.510;19.036;2023-05-10T08:21:47;22.30;42.70
35325;DHT22;35135;47.510;19.036;2023-05-10T08:24:13;22.30;43.00
35325;DHT22;35135;47.510;19.036;2023-05-10T08:26:39;22.20;42.80
35325;DHT22;35135;47.510;19.036;2023-05-10T08:29:04;22.20;42.40
35325;DHT22;35135;47.510;19.036;2023-05-10T08:31:30;22.20;42.90
35325;DHT22;35135;47.510;19.036;2023-05-10T08:33:56;22.30;42.70
35325;DHT22;35135;47.510;19.036;2023-05-10T08:36:22;22.20;42.50
35325;DHT22;35135;47.510;19.036;2023-05-10T08:38:53;22.20;42.80
35325;DHT22;35135;47.510;19.036;2023-05-10T08:41:23;22.30;42.60
35325;DHT22;35135;47.510;19.036;2023-05-10T08:43:54;22.20;42.20
35325;DHT22;35135;47.510;19.036;2023-05-10T08:46:22;22.10;42.70
35325;DHT22;35135;47.510;19.036;2023-05-10T08:48:50;22.10;42.80
35325;DHT22;35135;47.510;19.036;2023-05-10T08:51:22;22.10;42.80
35325;DHT22;35135;47.510;19.036;2023-05-10T08:53:52;22.20;42.70
35325;DHT22;35135;47.510;19.036;2023-05-10T08:56:18;22.20;42.40
35325;DHT22;35135;47.510;19.036;2023-05-10T08:58:45;22.20;42.30
35325;DHT22;35135;47.510;19.036;2023-05-10T09:01:12;22.10;42.20
35325;DHT22;35135;47.510;19.036;2023-05-10T09:03:39;21.90;42.30
35325;DHT22;35135;47.510;19.036;2023-05-10T09:06:05;21.80;42.20
35325;DHT22;35135;47.510;19.036;2023-05-10T09:08:32;21.60;41.90
35325;DHT22;35135;47.510;19.036;2023-05-10T09:11:00;21.50;42.30
35325;DHT22;35135;47.510;19.036;2023-05-10T09:13:27;21.50;42.30
35325;DHT22;35135;47.510;19.036;2023-05-10T09:15:54;21.50;42.60
35325;DHT22;35135;47.510;19.036;2023-05-10T09:18:19;21.40;42.40
35325;DHT22;35135;47.510;19.036;2023-05-10T09:20:45;21.40;42.90
35325;DHT22;35135;47.510;19.036;2023-05-10T09:23:11;21.40;43.10
35325;DHT22;35135;47.510;19.036;2023-05-10T09:25:36;21.50;43.00
35325;DHT22;35135;47.510;19.036;2023-05-10T09:28:06;21.50;43.10
35325;DHT22;35135;47.510;19.036;2023-05-10T09:30:33;21.50;43.20
35325;DHT22;35135;47.510;19.036;2023-05-10T09:32:59;21.60;42.80
35325;DHT22;35135;47.510;19.036;2023-05-10T09:35:28;21.60;42.40
35325;DHT22;35135;47.510;19.036;2023-05-10T09:37:56;21.70;42.80
35325;DHT22;35135;47.510;19.036;2023-05-10T09:40:27;21.70;42.70
35325;DHT22;35135;47.510;19.036;2023-05-10T09:43:00;21.80;42.90
35325;DHT22;35135;47.510;19.036;2023-05-10T09:45:30;21.80;42.30
35325;DHT22;35135;47.510;19.036;2023-05-10T09:47:58;21.80;42.30
35325;DHT22;35135;47.510;19.036;2023-05-10T09:50:25;21.70;42.50
35325;DHT22;35135;47.510;19.036;2023-05-10T09:52:53;21.80;42.70
35325;DHT22;35135;47.510;19.036;2023-05-10T09:55:23;21.80;42.70
35325;DHT22;35135;47.510;19.036;2023-05-10T09:57:59;21.80;42.80
35325;DHT22;35135;47.510;19.036;2023-05-10T10:00:26;21.80;42.30
35325;DHT22;35135;47.510;19.036;2023-05-10T10:02:59;21.80;42.70
35325;DHT22;35135;47.510;19.036;2023-05-10T10:05:31;21.90;42.50
35325;DHT22;35135;47.510;19.036;2023-05-10T10:07:57;21.90;42.10
35325;DHT22;35135;47.510;19.036;2023-05-10T10:10:27;21.80;41.80
35325;DHT22;35135;47.510;19.036;2023-05-10T10:12:54;21.70;42.10
35325;DHT22;35135;47.510;19.036;2023-05-10T10:15:23;21.70;41.70
35325;DHT22;35135;47.510;19.036;2023-05-10T10:17:50;21.60;41.80
35325;DHT22;35135;47.510;19.036;2023-05-10T10:20:17;21.50;42.10
35325;DHT22;35135;47.510;19.036;2023-05-10T10:22:43;21.40;42.50
35325;DHT22;35135;47.510;19.036;2023-05-10T10:25:10;21.40;42.00
35325;DHT22;35135;47.510;19.036;2023-05-10T10:35:52;21.50;42.20
35325;DHT22;35135;47.510;19.036;2023-05-10T10:38:18;21.60;42.30
35325;DHT22;35135;47.510;19.036;2023-05-10T10:40:44;21.60;42.00
35325;DHT22;35135;47.510;19.036;2023-05-10T10:43:28;21.70;42.40
35325;DHT22;35135;47.510;19.036;2023-05-10T10:46:14;21.70;41.80
35325;DHT22;35135;47.510;19.036;2023-05-10T10:48:47;21.70;41.90
35325;DHT22;35135;47.510;19.036;2023-05-10T10:51:13;21.70;42.10
35325;DHT22;35135;47.510;19.036;2023-05-10T10:53:40;21.80;40.70
35325;DHT22;35135;47.510;19.036;2023-05-10T10:56:08;21.70;41.40
35325;DHT22;35135;47.510;19.036;2023-05-10T10:58:36;21.70;41.10
35325;DHT22;35135;47.510;19.036;2023-05-10T11:01:16;21.70;40.70
35325;DHT22;35135;47.510;19.036;2023-05-10T11:06:31;21.80;41.40
35325;DHT22;35135;47.510;19.036;2023-05-10T11:08:58;21.80;41.60
35325;DHT22;35135;47.510;19.036;2023-05-10T11:11:23;21.90;41.50
35325;DHT22;35135;47.510;19.036;2023-05-10T11:13:49;21.90;41.50
35325;DHT22;35135;47.510;19.036;2023-05-10T11:21:23;21.90;40.50
35325;DHT22;35135;47.510;19.036;2023-05-10T11:23:56;21.90;40.50
35325;DHT22;35135;47.510;19.036;2023-05-10T11:26:41;21.90;40.80
35325;DHT22;35135;47.510;19.036;2023-05-10T11:29:07;21.90;40.90
35325;DHT22;35135;47.510;19.036;2023-05-10T11:31:33;21.90;40.60
35325;DHT22;35135;47.510;19.036;2023-05-10T11:34:00;21.90;40.80
35325;DHT22;35135;47.510;19.036;2023-05-10T11:36:32;21.90;40.50
35325;DHT22;35135;47.510;19.036;2023-05-10T11:38:58;21.90;40.60
35325;DHT22;35135;47.510;19.036;2023-05-10T11:41:24;21.90;40.50
35325;DHT22;35135;47.510;19.036;2023-05-10T11:43:51;21.90;40.90
35325;DHT22;35135;47.510;19.036;2023-05-10T11:46:26;22.00;41.00
35325;DHT22;35135;47.510;19.036;2023-05-10T11:48:58;22.00;40.50
35325;DHT22;35135;47.510;19.036;2023-05-10T11:51:26;22.00;40.40
35325;DHT22;35135;47.510;19.036;2023-05-10T11:53:56;21.90;40.30
35325;DHT22;35135;47.510;19.036;2023-05-10T11:56:22;21.90;40.40
35325;DHT22;35135;47.510;19.036;2023-05-10T11:58:57;21.90;40.30
35325;DHT22;35135;47.510;19.036;2023-05-10T12:01:24;21.90;40.30
35325;DHT22;35135;47.510;19.036;2023-05-10T12:03:51;21.90;40.40
35325;DHT22;35135;47.510;19.036;2023-05-10T12:06:19;21.90;40.30
35325;DHT22;35135;47.510;19.036;2023-05-10T12:08:46;21.90;39.50
35325;DHT22;35135;47.510;19.036;2023-05-10T12:11:13;21.80;40.30
35325;DHT22;35135;47.510;19.036;2023-05-10T12:13:43;21.80;40.60
35325;DHT22;35135;47.510;19.036;2023-05-10T12:16:19;21.80;39.90
35325;DHT22;35135;47.510;19.036;2023-05-10T12:18:51;21.80;40.10
35325;DHT22;35135;47.510;19.036;2023-05-10T12:21:19;21.80;40.00
35325;DHT22;35135;47.510;19.036;2023-05-10T12:23:46;21.80;39.70
35325;DHT22;35135;47.510;19.036;2023-05-10T12:26:12;21.70;39.60
35325;DHT22;35135;47.510;19.036;2023-05-10T12:28:38;21.70;40.20
35325;DHT22;35135;47.510;19.036;2023-05-10T12:31:06;21.60;39.80
35325;DHT22;35135;47.510;19.036;2023-05-10T12:33:44;21.60;40.00
35325;DHT22;35135;47.510;19.036;2023-05-10T12:36:12;21.70;39.90
35325;DHT22;35135;47.510;19.036;2023-05-10T12:38:42;21.70;40.00
35325;DHT22;35135;47.510;19.036;2023-05-10T12:41:16;21.70;39.70
35325;DHT22;35135;47.510;19.036;2023-05-10T12:43:42;21.80;39.90
35325;DHT22;35135;47.510;19.036;2023-05-10T12:46:10;21.70;39.90
35325;DHT22;35135;47.510;19.036;2023-05-10T12:48:37;21.80;40.00
35325;DHT22;35135;47.510;19.036;2023-05-10T12:51:04;21.70;39.80
35325;DHT22;35135;47.510;19.036;2023-05-10T12:53:30;21.70;40.00
35325;DHT22;35135;47.510;19.036;2023-05-10T12:55:57;21.80;40.10
35325;DHT22;35135;47.510;19.036;2023-05-10T12:58:22;21.80;40.10
35325;DHT22;35135;47.510;19.036;2023-05-10T13:00:48;21.90;39.70
35325;DHT22;35135;47.510;19.036;2023-05-10T13:03:14;21.80;39.70
35325;DHT22;35135;47.510;19.036;2023-05-10T13:05:41;21.90;40.00
35325;DHT22;35135;47.510;19.036;2023-05-10T13:08:06;21.80;39.90
35325;DHT22;35135;47.510;19.036;2023-05-10T13:10:32;21.90;40.30
35325;DHT22;35135;47.510;19.036;2023-05-10T13:12:58;22.00;40.30
35325;DHT22;35135;47.510;19.036;2023-05-10T13:15:25;22.00;40.30
35325;DHT22;35135;47.510;19.036;2023-05-10T13:17:51;22.00;39.60
35325;DHT22;35135;47.510;19.036;2023-05-10T13:20:17;22.00;40.10
35325;DHT22;35135;47.510;19.036;2023-05-10T13:22:43;22.00;39.60
35325;DHT22;35135;47.510;19.036;2023-05-10T13:25:10;22.00;39.30
35325;DHT22;35135;47.510;19.036;2023-05-10T13:27:39;22.00;39.30
35325;DHT22;35135;47.510;19.036;2023-05-10T13:30:07;21.90;39.80
35325;DHT22;35135;47.510;19.036;2023-05-10T13:32:33;22.00;39.90
35325;DHT22;35135;47.510;19.036;2023-05-10T13:34:58;22.00;39.80
35325;DHT22;35135;47.510;19.036;2023-05-10T13:37:24;22.10;39.90
35325;DHT22;35135;47.510;19.036;2023-05-10T13:39:50;22.10;39.00
35325;DHT22;35135;47.510;19.036;2023-05-10T13:42:15;22.10;39.30
35325;DHT22;35135;47.510;19.036;2023-05-10T13:44:41;22.10;39.30
35325;DHT22;35135;47.510;19.036;2023-05-10T13:47:07;22.10;39.40
35325;DHT22;35135;47.510;19.036;2023-05-10T13:49:33;22.10;39.00
35325;DHT22;35135;47.510;19.036;2023-05-10T13:51:59;22.10;39.10
35325;DHT22;35135;47.510;19.036;2023-05-10T13:54:31;22.10;39.00
35325;DHT22;35135;47.510;19.036;2023-05-10T13:56:57;22.10;39.00
35325;DHT22;35135;47.510;19.036;2023-05-10T13:59:23;22.10;39.10
35325;DHT22;35135;47.510;19.036;2023-05-10T14:01:48;22.10;38.90
35325;DHT22;35135;47.510;19.036;2023-05-10T14:04:14;22.20;39.20
35325;DHT22;35135;47.510;19.036;2023-05-10T14:06:40;22.10;39.20
35325;DHT22;35135;47.510;19.036;2023-05-10T14:09:05;22.10;39.00
35325;DHT22;35135;47.510;19.036;2023-05-10T14:11:31;22.20;39.40
35325;DHT22;35135;47.510;19.036;2023-05-10T14:13:57;22.20;39.00
35325;DHT22;35135;47.510;19.036;2023-05-10T14:16:22;22.20;39.20
35325;DHT22;35135;47.510;19.036;2023-05-10T14:18:48;22.20;38.10
35325;DHT22;35135;47.510;19.036;2023-05-10T14:21:14;22.20;37.50
35325;DHT22;35135;47.510;19.036;2023-05-10T14:23:40;22.20;38.10
35325;DHT22;35135;47.510;19.036;2023-05-10T14:26:06;22.10;37.20
35325;DHT22;35135;47.510;19.036;2023-05-10T14:28:32;22.10;37.90
35325;DHT22;35135;47.510;19.036;2023-05-10T14:30:58;22.00;37.70
35325;DHT22;35135;47.510;19.036;2023-05-10T14:33:24;22.00;37.80
35325;DHT22;35135;47.510;19.036;2023-05-10T14:35:50;22.00;37.50
35325;DHT22;35135;47.510;19.036;2023-05-10T14:38:16;22.00;38.00
35325;DHT22;35135;47.510;19.036;2023-05-10T14:40:42;22.00;37.60
35325;DHT22;35135;47.510;19.036;2023-05-10T14:43:08;21.90;36.60
35325;DHT22;35135;47.510;19.036;2023-05-10T14:45:34;21.90;36.30
35325;DHT22;35135;47.510;19.036;2023-05-10T14:48:00;21.80;37.00
35325;DHT22;35135;47.510;19.036;2023-05-10T14:50:26;21.80;37.10
35325;DHT22;35135;47.510;19.036;2023-05-10T14:52:51;21.80;37.00
35325;DHT22;35135;47.510;19.036;2023-05-10T14:55:17;21.80;36.80
35325;DHT22;35135;47.510;19.036;2023-05-10T14:57:43;21.70;36.70
35325;DHT22;35135;47.510;19.036;2023-05-10T15:00:10;21.70;37.20
35325;DHT22;35135;47.510;19.036;2023-05-10T15:02:35;21.70;37.30
35325;DHT22;35135;47.510;19.036;2023-05-10T15:05:02;21.70;37.20
35325;DHT22;35135;47.510;19.036;2023-05-10T15:07:27;21.80;38.00
35325;DHT22;35135;47.510;19.036;2023-05-10T15:09:53;21.80;37.90
35325;DHT22;35135;47.510;19.036;2023-05-10T15:12:19;21.80;37.90
35325;DHT22;35135;47.510;19.036;2023-05-10T15:14:46;21.80;37.60
35325;DHT22;35135;47.510;19.036;2023-05-10T15:17:12;21.70;37.90
35325;DHT22;35135;47.510;19.036;2023-05-10T15:19:37;21.70;37.90
35325;DHT22;35135;47.510;19.036;2023-05-10T15:22:04;21.80;37.90
35325;DHT22;35135;47.510;19.036;2023-05-10T15:24:31;21.80;38.20
35325;DHT22;35135;47.510;19.036;2023-05-10T15:26:57;21.80;38.30
35325;DHT22;35135;47.510;19.036;2023-05-10T15:29:22;21.80;38.40
35325;DHT22;35135;47.510;19.036;2023-05-10T15:31:51;21.90;37.90
35325;DHT22;35135;47.510;19.036;2023-05-10T15:34:17;21.80;37.70
35325;DHT22;35135;47.510;19.036;2023-05-10T15:36:43;21.80;37.90
35325;DHT22;35135;47.510;19.036;2023-05-10T15:39:10;21.90;38.20
35325;DHT22;35135;47.510;19.036;2023-05-10T15:41:35;21.90;37.90
35325;DHT22;35135;47.510;19.036;2023-05-10T15:44:01;21.90;37.50
35325;DHT22;35135;47.510;19.036;2023-05-10T15:46:28;21.90;37.80
35325;DHT22;35135;47.510;19.036;2023-05-10T15:48:54;21.90;37.60